Share

Agency Village, SD

Wheaton Municipal (KETH) Elev 1024 ft | 45.78 °N, 96.54 °W | Change Station

Current weather conditions updated 5 minutes ago

Clear
Clear
72 °F
Feels Like 72 °F
N
14
Wind Variable Wind from WSW
Gusts 17 mph
Sunrise 6:35 AM
Sunset 8:19 PM
Moon Waning Gibbous

Today is forecast to be Much Warmer than yesterday.

Pressure 29.96 in
Visibility 10.0 miles
Clouds Clear
Dew Point 36 °F
Humidity 27%
Rainfall 0.00 in
Snow Depth Not available.
UV 7 out of 16
Pollen 10.90 out of 12
Air Quality Not available.
Flu Activity Sporadic
METAR KETH 192015Z AUTO 24012G15KT 10SM CLR 22/02 A2996 RMK AO2

More Conditions Fewer Conditions

Pressure 29.96 in
Visibility 10.0 miles
Clouds Clear
Dew Point 36 °F
Humidity 27%
Rainfall 0.00 in
Snow Depth Not available.
UV 7 out of 16
Pollen 10.90 out of 12
Air Quality Not available.
Flu Activity Sporadic
METAR KETH 192015Z AUTO 24012G15KT 10SM CLR 22/02 A2996 RMK AO2

More Conditions Fewer Conditions

10-Day Weather Forecast

Almanac

Astronomy

Apr. 19, 2014 Rise Set
Actual Time 6:35 AM CDT 8:19 PM CDT
Civil Twilight 6:03 AM CDT 8:51 PM CDT
Nautical Twilight 5:25 AM CDT 9:30 PM CDT
Astronomical Twilight 4:44 AM CDT 10:11 PM CDT
Moon 12:12 AM CDT 9:48 AM CDT
Length of Visible Light 14h 47m
Length of Day
13h 44m
Tomorrow will be 3m 1s longer.
Waning Gibbous, 77% of the Moon is Illuminated
Today
Waning Gibbous
Apr 22
Last Quarter
Apr 29
New
May 6
First Quarter
May 14
Full

Today's Extremes

State Highs State Lows

Community

  • Skirting the Horizon
    Skirting the Horizon
  • Piriapolis
    Piriapolis
  • A Glorious Morning
    A Glorious Morning
  • Tender Rays Of Hope
    Tender Rays Of Hope
  • Bleeding Hearts
    Bleeding Hearts

WunderPhotos

Upload Photos

1,702,886 photos uploaded!

WunderBlogs® & News

Nearby

Snow Depth

Station Depth Elevation
Blind Park 20 in 6890 ft

Coastal Water Temperatures

Place Temperature
No Stations Reporting

Earthquake Activity

City Distance Mag. Time & Date
No recent earthquake activity has been reported nearby.
Minimum magnitude displayed is 2.5.

Nearby Weather Stations

Station Location Temp. Dew Point Humidity Wind Precip. Elev Updated Type
RAWS MARSHALL CO SD, Lake City, SD 62 °F 28 °F 27% North  at  0 mph 0.00 in / hr 2009 ft 1:59 PM CDT MADIS

Show More Stations Show Fewer Stations

What do you think?

We're not finished. Please let us know what you like, what you don't like, and what you are still missing.